createdAt,value
2023-05-10T00:01:36.776Z,5.62
2023-05-10T00:04:04.427Z,5.60
2023-05-10T00:06:32.094Z,5.56
2023-05-10T00:08:59.016Z,5.45
2023-05-10T00:11:25.773Z,5.48
2023-05-10T00:13:52.701Z,5.62
2023-05-10T00:16:19.510Z,5.57
2023-05-10T00:18:46.446Z,5.48
2023-05-10T00:21:13.194Z,5.41
2023-05-10T00:23:40.193Z,5.60
2023-05-10T00:26:06.980Z,5.65
2023-05-10T00:28:33.802Z,5.63
2023-05-10T00:31:00.567Z,5.54
2023-05-10T00:33:27.566Z,5.45
2023-05-10T00:35:54.392Z,5.39
2023-05-10T00:38:21.804Z,5.27
2023-05-10T00:40:48.597Z,5.17
2023-05-10T00:43:21.584Z,5.24
2023-05-10T00:45:48.676Z,5.36
2023-05-10T00:48:15.588Z,5.28
2023-05-10T00:50:42.595Z,5.22
2023-05-10T00:53:09.619Z,5.23
2023-05-10T00:55:36.988Z,5.14
2023-05-10T00:58:04.809Z,5.16
2023-05-10T01:00:33.315Z,5.15
2023-05-10T01:03:01.063Z,5.11
2023-05-10T01:05:28.180Z,5.07
2023-05-10T01:07:55.657Z,5.12
2023-05-10T01:10:22.718Z,4.90
2023-05-10T01:12:49.657Z,4.86
2023-05-10T01:15:16.535Z,4.91
2023-05-10T01:17:45.846Z,4.98
2023-05-10T01:20:13.128Z,5.04
2023-05-10T01:23:08.540Z,5.16
2023-05-10T01:25:52.801Z,5.25
2023-05-10T01:28:45.124Z,5.38
2023-05-10T01:31:30.839Z,5.37
2023-05-10T01:34:13.610Z,5.60
2023-05-10T01:36:51.279Z,5.81
2023-05-10T01:39:23.083Z,3.09
2023-05-10T01:42:00.147Z,4.32
2023-05-10T01:44:30.319Z,4.81
2023-05-10T01:47:10.168Z,5.02
2023-05-10T01:49:57.263Z,5.09
2023-05-10T01:52:27.506Z,3.79
2023-05-10T01:55:01.845Z,2.44
2023-05-10T01:57:35.618Z,3.57
2023-05-10T02:00:06.791Z,1.99
2023-05-10T02:02:45.184Z,1.77
2023-05-10T02:05:13.804Z,2.58
2023-05-10T02:07:41.051Z,3.86
2023-05-10T02:10:08.963Z,4.24
2023-05-10T02:12:36.871Z,4.51
2023-05-10T02:15:05.993Z,4.54
2023-05-10T02:17:33.325Z,4.45
2023-05-10T02:20:00.512Z,4.64
2023-05-10T02:22:27.955Z,4.88
2023-05-10T02:24:56.240Z,4.80
2023-05-10T02:27:23.799Z,4.71
2023-05-10T02:29:50.708Z,4.79
2023-05-10T02:32:18.534Z,4.86
2023-05-10T02:34:46.030Z,5.01
2023-05-10T02:37:15.135Z,5.19
2023-05-10T02:39:44.476Z,5.21
2023-05-10T02:42:17.668Z,5.26
2023-05-10T02:44:46.318Z,5.50
2023-05-10T02:47:15.637Z,5.78
2023-05-10T02:49:43.288Z,6.00
2023-05-10T02:52:10.281Z,6.21
2023-05-10T02:54:44.454Z,6.41
2023-05-10T02:57:15.240Z,6.64
2023-05-10T02:59:43.367Z,6.89
2023-05-10T03:02:10.202Z,7.16
2023-05-10T03:04:37.390Z,7.38
2023-05-10T03:07:04.504Z,7.43
2023-05-10T03:09:32.510Z,7.58
2023-05-10T03:12:16.117Z,7.58
2023-05-10T03:14:49.094Z,7.76
2023-05-10T03:17:20.237Z,7.62
2023-05-10T03:19:54.831Z,4.96
2023-05-10T03:22:29.061Z,5.98
2023-05-10T03:24:58.073Z,6.06
2023-05-10T03:27:26.964Z,6.25
2023-05-10T03:29:55.129Z,6.37
2023-05-10T03:32:22.582Z,6.57
2023-05-10T03:34:49.539Z,6.65
2023-05-10T03:37:16.578Z,6.58
2023-05-10T03:39:43.421Z,6.77
2023-05-10T03:42:12.312Z,6.95
2023-05-10T03:44:39.532Z,6.98
2023-05-10T03:47:06.725Z,7.16
2023-05-10T03:49:33.729Z,7.32
2023-05-10T03:52:00.513Z,7.57
2023-05-10T03:54:27.648Z,7.78
2023-05-10T03:56:54.459Z,8.16
2023-05-10T03:59:21.640Z,8.62
2023-05-10T04:01:48.877Z,8.64
2023-05-10T04:04:16.094Z,8.74
2023-05-10T04:06:43.129Z,8.85
2023-05-10T04:09:10.016Z,8.94
2023-05-10T04:11:36.795Z,9.14
2023-05-10T04:14:03.613Z,9.52
2023-05-10T04:16:30.473Z,9.96
2023-05-10T04:18:57.860Z,10.51
2023-05-10T04:21:25.008Z,11.11
2023-05-10T04:23:51.888Z,11.65
2023-05-10T04:26:18.596Z,12.20
2023-05-10T04:28:45.715Z,12.71
2023-05-10T04:31:12.691Z,12.98
2023-05-10T04:33:39.598Z,13.30
2023-05-10T04:36:06.496Z,13.69
2023-05-10T04:38:33.433Z,14.02
2023-05-10T04:41:09.381Z,14.48
2023-05-10T04:43:36.504Z,14.77
2023-05-10T04:46:03.855Z,15.10
2023-05-10T04:48:30.932Z,15.33
2023-05-10T04:50:57.706Z,15.41
2023-05-10T04:53:24.360Z,15.82
2023-05-10T04:55:51.261Z,16.19
2023-05-10T04:58:18.101Z,16.62
2023-05-10T05:00:44.817Z,16.95
2023-05-10T05:03:11.725Z,17.19
2023-05-10T05:05:38.766Z,17.08
2023-05-10T05:08:05.696Z,17.20
2023-05-10T05:10:32.473Z,17.55
2023-05-10T05:12:59.346Z,18.01
2023-05-10T05:15:26.861Z,18.49
2023-05-10T05:17:53.962Z,18.74
2023-05-10T05:20:20.852Z,19.38
2023-05-10T05:22:47.816Z,19.36
2023-05-10T05:25:15.580Z,19.62
2023-05-10T05:27:42.673Z,19.48
2023-05-10T05:30:10.149Z,19.53
2023-05-10T05:32:37.113Z,19.85
2023-05-10T05:35:04.793Z,19.69
2023-05-10T05:37:31.758Z,14.67
2023-05-10T05:39:58.803Z,13.59
2023-05-10T05:42:26.453Z,13.26
2023-05-10T05:45:58.498Z,13.43
2023-05-10T05:48:25.577Z,13.85
2023-05-10T05:50:56.957Z,14.33
2023-05-10T05:53:23.883Z,14.34
2023-05-10T05:55:54.689Z,14.21
2023-05-10T05:58:22.617Z,14.33
2023-05-10T06:00:49.576Z,14.25
2023-05-10T06:03:16.655Z,14.00
2023-05-10T06:05:44.038Z,14.13
2023-05-10T06:08:10.791Z,14.55
2023-05-10T06:10:39.451Z,15.10
2023-05-10T06:13:06.652Z,15.40
2023-05-10T06:15:33.731Z,15.32
2023-05-10T06:18:00.904Z,15.07
2023-05-10T06:20:27.840Z,15.17
2023-05-10T06:22:54.934Z,15.35
2023-05-10T06:25:21.643Z,15.30
2023-05-10T06:27:52.725Z,16.26
2023-05-10T06:30:23.417Z,16.54
2023-05-10T06:32:50.430Z,16.93
2023-05-10T06:35:17.582Z,15.80
2023-05-10T06:37:44.725Z,15.29
2023-05-10T06:40:12.349Z,15.15
2023-05-10T06:42:39.657Z,14.98
2023-05-10T06:45:07.462Z,15.22
2023-05-10T06:47:36.549Z,15.28
2023-05-10T06:50:06.401Z,15.19
2023-05-10T06:52:33.748Z,15.19
2023-05-10T06:55:00.815Z,15.44
2023-05-10T06:57:31.808Z,15.83
2023-05-10T06:59:59.447Z,15.92
2023-05-10T07:02:26.904Z,16.64
2023-05-10T07:04:54.600Z,16.34
2023-05-10T07:07:21.523Z,16.76
2023-05-10T07:09:49.388Z,16.79
2023-05-10T07:12:16.267Z,16.22
2023-05-10T07:14:43.199Z,15.96
2023-05-10T07:17:10.387Z,15.84
2023-05-10T07:19:37.209Z,15.82
2023-05-10T07:22:04.871Z,16.12
2023-05-10T07:24:33.597Z,15.77
2023-05-10T07:27:00.429Z,14.63
2023-05-10T07:29:27.203Z,14.30
2023-05-10T07:31:55.347Z,14.65
2023-05-10T07:34:23.251Z,14.84
2023-05-10T07:36:50.021Z,15.06
2023-05-10T07:39:24.822Z,15.15
2023-05-10T07:41:55.264Z,15.17
2023-05-10T07:44:22.252Z,15.11
2023-05-10T07:46:49.983Z,15.06
2023-05-10T07:49:16.804Z,15.04
2023-05-10T07:51:43.788Z,15.04
2023-05-10T07:54:10.710Z,14.81
2023-05-10T07:56:37.510Z,15.14
2023-05-10T07:59:05.589Z,16.01
2023-05-10T08:01:33.557Z,15.36
2023-05-10T08:04:00.565Z,14.13
2023-05-10T08:06:28.517Z,15.91
2023-05-10T08:08:55.965Z,15.42
2023-05-10T08:11:22.815Z,14.15
2023-05-10T08:13:50.420Z,14.11
2023-05-10T08:16:17.681Z,14.05
2023-05-10T08:18:45.549Z,14.31
2023-05-10T08:21:12.535Z,14.27
2023-05-10T08:23:39.301Z,14.30
2023-05-10T08:26:06.090Z,14.39
2023-05-10T08:28:33.103Z,14.62
2023-05-10T08:30:59.867Z,14.77
2023-05-10T08:33:26.748Z,14.99
2023-05-10T08:35:53.477Z,15.21
2023-05-10T08:38:20.226Z,15.25
2023-05-10T08:40:47.171Z,15.06
2023-05-10T08:43:16.919Z,14.87
2023-05-10T08:45:45.767Z,14.94
2023-05-10T08:48:12.899Z,15.24
2023-05-10T08:50:40.724Z,15.30
2023-05-10T08:53:13.472Z,15.43
2023-05-10T08:55:43.089Z,15.61
2023-05-10T08:58:10.404Z,15.85
2023-05-10T09:00:38.218Z,16.00
2023-05-10T09:03:06.000Z,15.84
2023-05-10T09:05:33.111Z,15.77
2023-05-10T09:08:02.491Z,15.82
2023-05-10T09:10:29.837Z,15.80
2023-05-10T09:12:58.605Z,15.49
2023-05-10T09:15:26.442Z,15.54
2023-05-10T09:17:53.583Z,15.43
2023-05-10T09:20:21.572Z,15.32
2023-05-10T09:22:49.111Z,15.39
2023-05-10T09:25:16.731Z,15.41
2023-05-10T09:27:47.773Z,15.32
2023-05-10T09:30:28.146Z,15.33
2023-05-10T09:32:55.653Z,15.19
2023-05-10T09:35:25.914Z,15.07
2023-05-10T09:37:56.460Z,15.14
2023-05-10T09:40:28.040Z,15.13
2023-05-10T09:43:02.840Z,15.06
2023-05-10T09:45:39.109Z,14.85
2023-05-10T09:48:11.151Z,14.36
2023-05-10T09:50:39.237Z,14.31
2023-05-10T09:53:05.984Z,14.81
2023-05-10T09:55:40.164Z,15.01
2023-05-10T09:58:15.724Z,14.32
2023-05-10T10:00:48.122Z,14.49
2023-05-10T10:03:16.608Z,14.35
2023-05-10T10:05:44.180Z,14.32
2023-05-10T10:08:12.250Z,14.39
2023-05-10T10:10:40.757Z,14.44
2023-05-10T10:13:07.769Z,14.45
2023-05-10T10:15:34.902Z,14.32
2023-05-10T10:18:01.830Z,14.24
2023-05-10T10:20:28.940Z,14.17
2023-05-10T10:22:55.762Z,14.32
2023-05-10T10:25:22.841Z,14.58
2023-05-10T10:27:52.715Z,14.96
2023-05-10T10:30:20.244Z,15.14
2023-05-10T10:33:27.874Z,15.37
2023-05-10T10:35:56.294Z,17.85
2023-05-10T10:38:23.265Z,18.78
2023-05-10T10:41:01.944Z,18.75
2023-05-10T10:43:29.107Z,18.03
2023-05-10T10:46:17.802Z,15.98
2023-05-10T10:48:48.866Z,17.87
2023-05-10T10:51:15.687Z,15.73
2023-05-10T10:53:42.953Z,15.08
2023-05-10T10:56:11.218Z,15.02
2023-05-10T10:58:38.585Z,16.82
2023-05-10T11:01:18.066Z,17.35
2023-05-10T11:04:03.139Z,17.67
2023-05-10T11:06:33.826Z,15.53
2023-05-10T11:09:18.604Z,15.40
2023-05-10T11:11:52.691Z,15.73
2023-05-10T11:14:23.012Z,15.79
2023-05-10T11:16:50.158Z,15.91
2023-05-10T11:19:18.149Z,16.49
2023-05-10T11:21:52.231Z,16.86
2023-05-10T11:24:22.183Z,17.25
2023-05-10T11:26:52.509Z,18.46
2023-05-10T11:29:20.477Z,20.04
2023-05-10T11:31:47.970Z,20.62
2023-05-10T11:34:24.323Z,20.74
2023-05-10T11:36:52.389Z,17.63
2023-05-10T11:39:19.111Z,16.74
2023-05-10T11:41:48.616Z,16.45
2023-05-10T11:44:15.540Z,16.27
2023-05-10T11:46:42.346Z,16.17
2023-05-10T11:49:09.167Z,16.02
2023-05-10T11:51:36.806Z,16.20
2023-05-10T11:54:08.928Z,16.31
2023-05-10T11:56:40.199Z,15.80
2023-05-10T11:59:07.102Z,15.52
2023-05-10T12:01:34.006Z,15.65
2023-05-10T12:04:01.252Z,15.89
2023-05-10T12:06:31.385Z,17.40
2023-05-10T12:08:58.329Z,17.99
2023-05-10T12:11:26.258Z,18.12
2023-05-10T12:13:53.530Z,18.50
2023-05-10T12:16:23.153Z,17.86
2023-05-10T12:18:53.801Z,16.71
2023-05-10T12:21:21.148Z,18.52
2023-05-10T12:23:50.429Z,19.16
2023-05-10T12:26:17.436Z,19.28
2023-05-10T12:28:44.705Z,17.34
2023-05-10T12:31:11.536Z,16.96
2023-05-10T12:33:43.056Z,16.85
2023-05-10T12:36:14.098Z,16.66
2023-05-10T12:38:48.146Z,16.41
2023-05-10T12:41:18.745Z,17.02
2023-05-10T12:43:48.459Z,16.35
2023-05-10T12:46:17.042Z,17.10
2023-05-10T12:48:44.508Z,17.92
2023-05-10T12:51:13.483Z,18.47
2023-05-10T12:53:41.760Z,18.90
2023-05-10T12:56:11.189Z,19.22
2023-05-10T12:58:38.772Z,19.43
2023-05-10T13:01:05.881Z,19.25
2023-05-10T13:03:33.095Z,19.31
2023-05-10T13:06:00.284Z,19.31
2023-05-10T13:08:28.152Z,19.13
2023-05-10T13:10:55.355Z,19.30
2023-05-10T13:13:23.022Z,19.07
2023-05-10T13:15:50.063Z,19.29
2023-05-10T13:18:16.862Z,19.81
2023-05-10T13:20:44.720Z,19.94
2023-05-10T13:23:11.490Z,20.38
2023-05-10T13:25:38.383Z,20.12
2023-05-10T13:28:05.307Z,20.12
2023-05-10T13:30:32.338Z,20.36
2023-05-10T13:32:59.184Z,20.47
2023-05-10T13:35:26.046Z,20.52
2023-05-10T13:37:53.863Z,20.60
2023-05-10T13:40:20.833Z,20.89
2023-05-10T13:42:47.662Z,20.69
2023-05-10T13:45:14.743Z,19.26
2023-05-10T13:47:42.021Z,17.58
2023-05-10T13:50:08.981Z,18.09
2023-05-10T13:52:35.987Z,18.34
2023-05-10T13:55:03.274Z,18.02
2023-05-10T13:57:30.861Z,17.14
2023-05-10T13:59:58.022Z,16.98
2023-05-10T14:02:25.092Z,16.67
2023-05-10T14:04:52.194Z,16.95
2023-05-10T14:07:19.583Z,17.19
2023-05-10T14:09:46.493Z,17.39
2023-05-10T14:12:14.958Z,17.64
2023-05-10T14:14:41.740Z,16.77
2023-05-10T14:17:10.751Z,17.00
2023-05-10T14:19:40.147Z,17.03
2023-05-10T14:22:07.288Z,17.10
2023-05-10T14:24:34.280Z,16.85
2023-05-10T14:27:01.084Z,17.07
2023-05-10T14:29:27.902Z,17.44
2023-05-10T14:31:54.729Z,17.00
2023-05-10T14:34:21.618Z,16.81
2023-05-10T14:36:49.429Z,17.26
2023-05-10T14:39:16.935Z,16.33
2023-05-10T14:41:44.994Z,16.25
2023-05-10T14:44:11.956Z,16.68
2023-05-10T14:46:39.908Z,15.91
2023-05-10T14:49:06.869Z,15.56
2023-05-10T14:51:33.732Z,16.11
2023-05-10T14:54:01.041Z,15.67
2023-05-10T14:56:28.394Z,16.06
2023-05-10T14:58:55.946Z,16.45
2023-05-10T15:01:23.543Z,16.76
2023-05-10T15:03:51.248Z,17.14
2023-05-10T15:06:27.390Z,17.41
2023-05-10T15:08:54.197Z,17.29
2023-05-10T15:11:21.020Z,16.96
2023-05-10T15:13:47.985Z,17.11
2023-05-10T15:16:14.995Z,17.24
2023-05-10T15:18:41.978Z,17.49
2023-05-10T15:21:09.383Z,15.57
2023-05-10T15:23:36.452Z,16.41
2023-05-10T15:26:03.203Z,16.15
2023-05-10T15:28:31.476Z,16.88
2023-05-10T15:31:00.811Z,17.60
2023-05-10T15:33:28.017Z,18.51
2023-05-10T15:35:54.822Z,19.36
2023-05-10T15:38:21.981Z,19.39
2023-05-10T15:40:48.705Z,18.65
2023-05-10T15:43:15.729Z,18.36
2023-05-10T15:45:42.819Z,18.59
2023-05-10T15:48:09.562Z,18.17
2023-05-10T15:50:36.384Z,17.45
2023-05-10T15:53:03.124Z,17.38
2023-05-10T15:55:30.067Z,16.55
2023-05-10T15:57:56.960Z,17.21
2023-05-10T16:00:23.807Z,16.55
2023-05-10T16:02:53.181Z,16.00
2023-05-10T16:05:20.287Z,17.34
2023-05-10T16:07:47.386Z,17.60
2023-05-10T16:10:14.321Z,17.84
2023-05-10T16:12:41.146Z,16.87
2023-05-10T16:15:08.539Z,17.62
2023-05-10T16:17:36.783Z,17.99
2023-05-10T16:20:04.942Z,17.69
2023-05-10T16:22:32.007Z,17.90
2023-05-10T16:24:58.739Z,17.97
2023-05-10T16:27:28.065Z,18.07
2023-05-10T16:29:54.864Z,18.30
2023-05-10T16:32:21.766Z,18.48
2023-05-10T16:34:49.598Z,18.63
2023-05-10T16:37:16.402Z,16.40
2023-05-10T16:39:43.319Z,15.48
2023-05-10T16:42:10.114Z,15.27
2023-05-10T16:44:37.106Z,15.68
2023-05-10T16:47:03.899Z,15.76
2023-05-10T16:49:31.094Z,15.63
2023-05-10T16:51:57.890Z,15.57
2023-05-10T16:54:25.236Z,14.76
2023-05-10T16:56:52.117Z,14.74
2023-05-10T16:59:18.932Z,14.22
2023-05-10T17:01:46.444Z,13.82
2023-05-10T17:04:13.835Z,13.72
2023-05-10T17:06:40.905Z,13.53
2023-05-10T17:09:07.772Z,14.21
2023-05-10T17:11:35.849Z,14.42
2023-05-10T17:14:02.913Z,14.50
2023-05-10T17:16:29.942Z,13.40
2023-05-10T17:18:56.938Z,12.66
2023-05-10T17:21:23.893Z,12.93
2023-05-10T17:23:50.810Z,13.54
2023-05-10T17:26:17.693Z,13.65
2023-05-10T17:28:44.454Z,13.73
2023-05-10T17:31:12.226Z,13.74
2023-05-10T17:33:39.088Z,13.49
2023-05-10T17:36:06.170Z,13.46
2023-05-10T17:38:33.482Z,12.51
2023-05-10T17:41:00.234Z,11.77
2023-05-10T17:43:27.063Z,12.64
2023-05-10T17:45:53.881Z,12.27
2023-05-10T17:48:21.388Z,12.51
2023-05-10T17:50:51.220Z,12.70
2023-05-10T17:53:19.089Z,12.79
2023-05-10T17:55:46.443Z,12.93
2023-05-10T17:58:13.375Z,13.03
2023-05-10T18:00:40.063Z,12.23
2023-05-10T18:03:06.835Z,11.71
2023-05-10T18:05:38.240Z,12.02
2023-05-10T18:08:05.326Z,12.67
2023-05-10T18:10:32.800Z,12.84
2023-05-10T18:13:01.833Z,13.09
2023-05-10T18:15:28.941Z,13.30
2023-05-10T18:17:56.330Z,13.30
2023-05-10T18:20:23.160Z,13.43
2023-05-10T18:22:50.118Z,13.51
2023-05-10T18:25:17.422Z,13.56
2023-05-10T18:27:44.527Z,13.65
2023-05-10T18:30:12.653Z,12.53
2023-05-10T18:32:40.338Z,12.03
2023-05-10T18:35:07.632Z,12.10
2023-05-10T18:37:34.996Z,12.29
2023-05-10T18:40:02.057Z,12.53
2023-05-10T18:42:28.987Z,11.43
2023-05-10T18:44:55.782Z,11.75
2023-05-10T18:47:22.676Z,11.88
2023-05-10T18:49:49.971Z,11.93
2023-05-10T18:52:16.790Z,12.01
2023-05-10T18:54:43.789Z,12.09
2023-05-10T18:57:11.837Z,12.17
2023-05-10T18:59:38.694Z,12.13
2023-05-10T19:02:05.568Z,12.14
2023-05-10T19:04:33.776Z,12.16
2023-05-10T19:07:01.578Z,11.56
2023-05-10T19:09:28.686Z,10.73
2023-05-10T19:11:56.155Z,10.90
2023-05-10T19:14:24.759Z,10.63
2023-05-10T19:16:53.734Z,10.69
2023-05-10T19:19:20.579Z,10.68
2023-05-10T19:21:47.784Z,10.66
2023-05-10T19:24:14.728Z,10.51
2023-05-10T19:26:41.631Z,10.48
2023-05-10T19:29:08.993Z,10.46
2023-05-10T19:31:36.189Z,10.39
2023-05-10T19:34:03.227Z,10.39
2023-05-10T19:36:30.789Z,10.41
2023-05-10T19:38:57.565Z,10.44
2023-05-10T19:41:24.360Z,10.43
2023-05-10T19:43:52.073Z,10.57
2023-05-10T19:46:20.251Z,10.74
2023-05-10T19:48:51.457Z,10.75
2023-05-10T19:51:18.227Z,10.80
2023-05-10T19:53:45.165Z,10.81
2023-05-10T19:56:12.517Z,10.65
2023-05-10T19:58:39.456Z,10.68
2023-05-10T20:01:07.112Z,10.77
2023-05-10T20:03:35.180Z,10.32
2023-05-10T20:06:02.011Z,10.21
2023-05-10T20:08:29.161Z,10.25
2023-05-10T20:10:58.331Z,10.61
2023-05-10T20:13:25.351Z,10.61
2023-05-10T20:15:56.346Z,10.72
2023-05-10T20:18:23.266Z,10.65
2023-05-10T20:20:57.811Z,10.83
2023-05-10T20:23:24.772Z,10.86
2023-05-10T20:25:51.636Z,10.76
2023-05-10T20:28:20.841Z,10.83
2023-05-10T20:30:47.722Z,10.68
2023-05-10T20:33:15.335Z,10.79
2023-05-10T20:35:42.244Z,10.66
2023-05-10T20:38:08.942Z,8.02
2023-05-10T20:40:36.448Z,8.95
2023-05-10T20:43:04.708Z,9.18
2023-05-10T20:45:32.077Z,9.36
2023-05-10T20:47:59.000Z,9.57
2023-05-10T20:50:25.896Z,8.99
2023-05-10T20:52:52.820Z,9.08
2023-05-10T20:55:19.994Z,9.23
2023-05-10T20:57:46.843Z,9.45
2023-05-10T21:00:14.190Z,9.58
2023-05-10T21:02:43.025Z,9.56
2023-05-10T21:05:09.779Z,9.56
2023-05-10T21:07:38.376Z,9.39
2023-05-10T21:10:07.339Z,7.94
2023-05-10T21:12:34.234Z,8.61
2023-05-10T21:15:01.048Z,8.76
2023-05-10T21:17:28.255Z,8.78
2023-05-10T21:19:55.215Z,8.76
2023-05-10T21:22:22.031Z,8.64
2023-05-10T21:24:48.723Z,8.52
2023-05-10T21:27:15.508Z,8.55
2023-05-10T21:29:42.289Z,8.60
2023-05-10T21:32:09.113Z,8.58
2023-05-10T21:34:36.214Z,8.53
2023-05-10T21:37:02.921Z,8.51
2023-05-10T21:39:29.739Z,8.47
2023-05-10T21:41:56.852Z,8.38
2023-05-10T21:44:23.693Z,8.42
2023-05-10T21:46:50.411Z,8.38
2023-05-10T21:49:17.239Z,8.42
2023-05-10T21:51:43.966Z,8.45
2023-05-10T21:54:10.773Z,8.58
2023-05-10T21:56:37.550Z,8.47
2023-05-10T21:59:04.774Z,8.36
2023-05-10T22:01:31.987Z,8.29
2023-05-10T22:03:58.837Z,8.21
2023-05-10T22:06:25.732Z,8.16
2023-05-10T22:08:52.717Z,8.14
2023-05-10T22:11:19.586Z,8.04
2023-05-10T22:13:46.293Z,7.96
2023-05-10T22:16:13.160Z,8.06
2023-05-10T22:18:40.316Z,8.00
2023-05-10T22:21:08.760Z,7.88
2023-05-10T22:23:36.648Z,7.56
2023-05-10T22:26:03.505Z,7.59
2023-05-10T22:28:30.423Z,7.52
2023-05-10T22:30:57.187Z,7.61
2023-05-10T22:33:24.085Z,7.65
2023-05-10T22:35:50.826Z,7.64
2023-05-10T22:38:17.793Z,7.56
2023-05-10T22:40:44.915Z,7.45
2023-05-10T22:43:11.728Z,7.38
2023-05-10T22:45:38.773Z,7.45
2023-05-10T22:48:05.776Z,7.42
2023-05-10T22:50:33.142Z,7.35
2023-05-10T22:52:59.869Z,7.29
2023-05-10T22:55:26.614Z,7.24
2023-05-10T22:57:53.638Z,7.21
2023-05-10T23:00:20.715Z,7.13
2023-05-10T23:02:47.798Z,6.93
2023-05-10T23:05:15.350Z,6.87
2023-05-10T23:07:43.251Z,6.87
2023-05-10T23:10:10.268Z,6.82
2023-05-10T23:12:38.041Z,6.78
2023-05-10T23:15:05.550Z,6.95
2023-05-10T23:17:32.534Z,6.89
2023-05-10T23:19:59.268Z,6.95
2023-05-10T23:22:26.259Z,6.98
2023-05-10T23:24:52.993Z,7.09
2023-05-10T23:27:19.750Z,7.13
2023-05-10T23:29:46.552Z,7.07
2023-05-10T23:32:13.470Z,7.08
2023-05-10T23:34:40.789Z,6.99
2023-05-10T23:37:07.659Z,6.94
2023-05-10T23:39:34.433Z,6.92
2023-05-10T23:42:01.281Z,6.73
2023-05-10T23:44:28.137Z,6.57
2023-05-10T23:46:55.003Z,6.52
2023-05-10T23:49:21.844Z,6.38
2023-05-10T23:51:48.641Z,6.39
2023-05-10T23:54:15.634Z,6.42
2023-05-10T23:56:42.637Z,6.50
2023-05-10T23:59:09.529Z,6.53
